Logan, Illinois
Current Conditions -  °F | °C
As of 8:50 PM on Monday 22 Dec 2014 (Local Time) from KMWA Reporting Station
Drizzle Drizzle  
Wind Chill: 11°   Ceiling: 800
Heat Index: 11°   Visibility: 7mi
Dew Point: 10°   Wind: 10mph
Humidity: 94%   Direction: 170°S
Pressure: 29.61"   Gusts: NA
Location:  37.96°N, 88.84°W
Report Text: KMWA 230250Z AUTO 17009KT 7SM -DZ OVC008 11/10 A2961 RMK AO2
Loading
Personal Weather Stations






























Interactive Weather Map New forecast layout! Learn more

10-Day Weather Forecast

Advertisements
Track Severe Weather on mobile